createdAt,value
2023-03-30T00:01:32.488Z,96.80
2023-03-30T00:04:03.585Z,96.70
2023-03-30T00:06:34.613Z,96.60
2023-03-30T00:09:06.385Z,96.60
2023-03-30T00:11:37.948Z,96.50
2023-03-30T00:14:08.869Z,96.50
2023-03-30T00:16:40.011Z,96.60
2023-03-30T00:19:11.525Z,96.60
2023-03-30T00:21:42.578Z,96.60
2023-03-30T00:24:13.734Z,96.60
2023-03-30T00:26:44.634Z,96.60
2023-03-30T00:29:15.634Z,96.70
2023-03-30T00:31:46.563Z,96.90
2023-03-30T00:34:17.525Z,96.90
2023-03-30T00:36:49.188Z,96.90
2023-03-30T00:39:22.880Z,96.90
2023-03-30T00:41:53.748Z,97.00
2023-03-30T00:45:20.952Z,97.00
2023-03-30T00:48:15.301Z,97.10
2023-03-30T00:51:01.515Z,97.20
2023-03-30T00:53:45.824Z,97.20
2023-03-30T00:56:23.065Z,97.30
2023-03-30T00:58:55.018Z,97.30
2023-03-30T01:01:28.672Z,97.30
2023-03-30T01:04:05.599Z,97.30
2023-03-30T01:06:40.422Z,97.30
2023-03-30T01:09:12.719Z,97.40
2023-03-30T01:11:44.009Z,97.50
2023-03-30T01:14:16.659Z,97.60
2023-03-30T01:17:25.698Z,97.60
2023-03-30T01:20:33.550Z,97.70
2023-03-30T01:23:48.978Z,97.80
2023-03-30T01:27:19.173Z,97.90
2023-03-30T01:30:50.364Z,98.30
2023-03-30T01:34:07.999Z,99.90
2023-03-30T01:37:15.624Z,99.90
2023-03-30T01:39:59.115Z,99.90
2023-03-30T01:43:07.216Z,99.90
2023-03-30T01:45:58.012Z,99.90
2023-03-30T01:48:45.768Z,99.90
2023-03-30T01:51:24.220Z,99.90
2023-03-30T01:54:13.197Z,99.90
2023-03-30T01:57:15.985Z,99.90
2023-03-30T02:00:01.424Z,99.90
2023-03-30T02:02:34.553Z,99.90
2023-03-30T02:05:07.422Z,99.90
2023-03-30T02:07:42.465Z,99.90
2023-03-30T02:10:17.650Z,99.90
2023-03-30T02:12:50.928Z,99.90
2023-03-30T02:15:23.807Z,99.90
2023-03-30T02:17:55.295Z,99.90
2023-03-30T02:20:28.791Z,99.90
2023-03-30T02:23:01.432Z,99.90
2023-03-30T02:25:34.451Z,99.90
2023-03-30T02:28:07.896Z,99.90
2023-03-30T02:30:43.167Z,99.90
2023-03-30T02:34:10.542Z,99.90
2023-03-30T02:37:34.925Z,99.90
2023-03-30T02:40:52.791Z,99.90
2023-03-30T02:43:41.920Z,99.90
2023-03-30T02:46:54.316Z,99.90
2023-03-30T02:49:43.164Z,99.90
2023-03-30T02:52:47.475Z,99.90
2023-03-30T02:55:24.590Z,99.90
2023-03-30T02:58:06.298Z,99.90
2023-03-30T03:00:54.200Z,99.90
2023-03-30T03:03:40.162Z,99.90
2023-03-30T03:06:14.673Z,99.90
2023-03-30T03:08:48.240Z,99.90
2023-03-30T03:11:19.147Z,99.90
2023-03-30T03:13:50.433Z,99.90
2023-03-30T03:16:21.627Z,99.90
2023-03-30T03:18:52.756Z,99.90
2023-03-30T03:21:23.606Z,99.90
2023-03-30T03:23:54.576Z,99.90
2023-03-30T03:26:27.139Z,99.90
2023-03-30T03:28:58.037Z,99.90
2023-03-30T03:31:28.900Z,99.90
2023-03-30T03:33:59.761Z,99.90
2023-03-30T03:36:30.915Z,99.90
2023-03-30T03:39:01.882Z,99.90
2023-03-30T03:41:32.976Z,99.90
2023-03-30T03:44:03.872Z,99.90
2023-03-30T03:46:34.878Z,99.90
2023-03-30T03:49:05.822Z,99.90
2023-03-30T03:51:37.098Z,99.90
2023-03-30T03:54:08.133Z,99.90
2023-03-30T03:56:39.067Z,99.90
2023-03-30T03:59:10.288Z,99.90
2023-03-30T04:01:41.149Z,99.90
2023-03-30T04:04:12.093Z,99.90
2023-03-30T04:06:42.985Z,99.90
2023-03-30T04:09:13.865Z,99.90
2023-03-30T04:11:44.827Z,99.90
2023-03-30T04:14:15.979Z,99.90
2023-03-30T04:16:46.955Z,99.90
2023-03-30T04:19:18.360Z,99.90
2023-03-30T04:21:52.997Z,99.90
2023-03-30T04:24:23.951Z,99.90
2023-03-30T04:26:54.805Z,99.90
2023-03-30T04:29:26.189Z,99.90
2023-03-30T04:32:02.768Z,99.90
2023-03-30T04:34:33.932Z,99.90
2023-03-30T04:37:04.822Z,99.90
2023-03-30T04:39:39.303Z,99.90
2023-03-30T04:42:14.481Z,99.90
2023-03-30T04:44:46.632Z,99.90
2023-03-30T04:47:18.488Z,99.90
2023-03-30T04:49:49.344Z,99.90
2023-03-30T04:52:20.824Z,99.90
2023-03-30T04:54:51.757Z,99.90
2023-03-30T04:57:22.730Z,99.90
2023-03-30T04:59:54.717Z,99.90
2023-03-30T05:02:25.680Z,99.90
2023-03-30T05:04:56.662Z,99.90
2023-03-30T05:07:27.618Z,99.90
2023-03-30T05:09:58.534Z,99.90
2023-03-30T05:12:29.477Z,99.90
2023-03-30T05:15:00.638Z,99.90
2023-03-30T05:17:34.983Z,99.90
2023-03-30T05:20:10.256Z,99.90
2023-03-30T05:22:41.537Z,99.90
2023-03-30T05:25:12.916Z,99.90
2023-03-30T05:27:43.755Z,99.90
2023-03-30T05:30:15.120Z,99.90
2023-03-30T05:32:45.982Z,99.90
2023-03-30T05:35:17.033Z,99.90
2023-03-30T05:37:49.853Z,99.90
2023-03-30T05:40:20.737Z,99.90
2023-03-30T05:42:51.585Z,99.90
2023-03-30T05:45:22.566Z,99.90
2023-03-30T05:47:54.651Z,99.90
2023-03-30T05:50:26.928Z,99.90
2023-03-30T05:52:58.101Z,99.90
2023-03-30T05:55:29.389Z,99.90
2023-03-30T05:58:00.657Z,99.90
2023-03-30T06:00:36.703Z,99.90
2023-03-30T06:03:14.345Z,99.90
2023-03-30T06:05:46.207Z,99.90
2023-03-30T06:08:17.100Z,99.90
2023-03-30T06:10:56.647Z,99.90
2023-03-30T06:13:27.877Z,99.90
2023-03-30T06:16:00.237Z,99.90
2023-03-30T06:18:33.384Z,99.90
2023-03-30T06:21:09.534Z,99.90
2023-03-30T06:23:43.387Z,99.90
2023-03-30T06:26:14.733Z,99.90
2023-03-30T06:28:45.588Z,99.90
2023-03-30T06:31:16.682Z,99.90
2023-03-30T06:33:47.719Z,99.90
2023-03-30T06:36:18.696Z,99.90
2023-03-30T06:38:49.737Z,99.90
2023-03-30T06:41:20.642Z,99.90
2023-03-30T06:43:51.598Z,99.90
2023-03-30T06:46:22.509Z,99.90
2023-03-30T06:48:53.477Z,99.90
2023-03-30T06:51:24.450Z,99.90
2023-03-30T06:53:55.562Z,99.90
2023-03-30T06:56:26.698Z,99.90
2023-03-30T06:58:57.555Z,99.90
2023-03-30T07:01:28.659Z,99.90
2023-03-30T07:03:59.675Z,99.90
2023-03-30T07:06:30.993Z,99.90
2023-03-30T07:09:03.206Z,99.90
2023-03-30T07:11:34.062Z,99.90
2023-03-30T07:14:05.484Z,99.90
2023-03-30T07:16:36.544Z,99.90
2023-03-30T07:19:08.028Z,99.90
2023-03-30T07:21:38.908Z,99.90
2023-03-30T07:24:09.808Z,99.90
2023-03-30T07:26:40.754Z,99.90
2023-03-30T07:29:11.702Z,99.90
2023-03-30T07:31:42.828Z,99.90
2023-03-30T07:34:14.263Z,99.90
2023-03-30T07:36:45.102Z,99.90
2023-03-30T07:39:15.966Z,99.90
2023-03-30T07:41:46.917Z,99.90
2023-03-30T07:44:17.848Z,99.90
2023-03-30T07:46:48.796Z,99.90
2023-03-30T07:49:19.994Z,99.90
2023-03-30T07:51:51.884Z,99.90
2023-03-30T07:54:22.807Z,99.90
2023-03-30T07:56:53.750Z,99.90
2023-03-30T07:59:24.910Z,99.90
2023-03-30T08:01:56.202Z,99.90
2023-03-30T08:04:27.932Z,99.90
2023-03-30T08:06:59.088Z,99.90
2023-03-30T08:09:30.818Z,99.90
2023-03-30T08:12:02.268Z,99.90
2023-03-30T08:14:33.212Z,99.90
2023-03-30T08:17:04.148Z,99.90
2023-03-30T08:19:35.079Z,99.90
2023-03-30T08:22:05.910Z,99.90
2023-03-30T08:24:37.819Z,99.90
2023-03-30T08:27:08.777Z,99.90
2023-03-30T08:29:40.644Z,99.90
2023-03-30T08:32:11.550Z,99.90
2023-03-30T08:34:42.422Z,99.90
2023-03-30T08:37:13.336Z,99.90
2023-03-30T08:39:44.657Z,99.90
2023-03-30T08:43:05.420Z,99.90
2023-03-30T08:45:42.493Z,99.90
2023-03-30T08:48:24.348Z,99.90
2023-03-30T08:51:02.103Z,99.90
2023-03-30T08:53:34.370Z,99.90
2023-03-30T08:56:14.064Z,99.90
2023-03-30T08:59:18.471Z,99.90
2023-03-30T09:02:18.003Z,99.90
2023-03-30T09:05:27.453Z,99.90
2023-03-30T09:08:21.533Z,99.90
2023-03-30T09:11:01.974Z,99.90
2023-03-30T09:13:37.819Z,99.90
2023-03-30T09:16:22.778Z,99.90
2023-03-30T09:18:56.756Z,99.90
2023-03-30T09:21:32.267Z,99.90
2023-03-30T09:24:16.019Z,99.90
2023-03-30T09:27:20.050Z,99.90
2023-03-30T09:29:55.744Z,99.90
2023-03-30T09:32:41.828Z,99.90
2023-03-30T09:35:24.348Z,99.90
2023-03-30T09:37:55.696Z,99.90
2023-03-30T09:41:07.233Z,99.90
2023-03-30T09:43:46.196Z,99.90
2023-03-30T09:46:18.049Z,99.90
2023-03-30T09:48:50.014Z,99.90
2023-03-30T09:51:25.224Z,99.90
2023-03-30T09:54:06.264Z,99.90
2023-03-30T09:56:47.613Z,99.90
2023-03-30T09:59:35.064Z,99.90
2023-03-30T10:02:12.888Z,99.90
2023-03-30T10:05:17.808Z,99.90
2023-03-30T10:07:56.356Z,99.90
2023-03-30T10:10:37.837Z,99.90
2023-03-30T10:13:19.658Z,99.90
2023-03-30T10:15:54.759Z,99.90
2023-03-30T10:18:44.683Z,99.90
2023-03-30T10:21:15.495Z,99.90
2023-03-30T10:24:00.039Z,99.90
2023-03-30T10:26:31.762Z,99.90
2023-03-30T10:29:08.897Z,99.90
2023-03-30T10:31:46.237Z,99.90
2023-03-30T10:34:53.736Z,99.90
2023-03-30T10:37:32.545Z,99.90
2023-03-30T10:40:28.175Z,99.90
2023-03-30T10:43:01.008Z,99.90
2023-03-30T10:45:40.537Z,99.90
2023-03-30T10:48:20.566Z,99.90
2023-03-30T10:51:17.965Z,99.90
2023-03-30T10:54:03.887Z,99.90
2023-03-30T10:56:54.901Z,99.90
2023-03-30T11:00:24.694Z,99.90
2023-03-30T11:03:08.139Z,99.90
2023-03-30T11:05:43.556Z,99.90
2023-03-30T11:08:33.038Z,99.90
2023-03-30T11:11:06.523Z,99.90
2023-03-30T11:13:46.077Z,99.90
2023-03-30T11:16:22.116Z,99.90
2023-03-30T11:19:23.123Z,99.90
2023-03-30T11:22:00.473Z,99.90
2023-03-30T11:24:31.388Z,99.90
2023-03-30T11:27:29.377Z,99.90
2023-03-30T11:30:35.707Z,99.90
2023-03-30T11:33:36.991Z,99.90
2023-03-30T11:37:06.636Z,99.90
2023-03-30T11:39:45.733Z,99.90
2023-03-30T11:42:27.095Z,99.90
2023-03-30T11:44:58.818Z,99.90
2023-03-30T11:47:35.521Z,99.90
2023-03-30T11:50:44.571Z,99.90
2023-03-30T11:53:42.751Z,99.90
2023-03-30T11:56:37.580Z,99.90
2023-03-30T11:59:43.939Z,99.90
2023-03-30T12:03:02.751Z,99.90
2023-03-30T12:06:07.026Z,99.90
2023-03-30T12:08:56.018Z,99.90
2023-03-30T12:11:46.595Z,99.90
2023-03-30T12:14:47.894Z,99.90
2023-03-30T12:17:51.052Z,99.90
2023-03-30T12:20:33.000Z,99.90
2023-03-30T12:23:45.341Z,99.90
2023-03-30T12:26:29.653Z,99.90
2023-03-30T12:31:56.022Z,99.90
2023-03-30T12:34:32.062Z,99.90
2023-03-30T12:37:10.144Z,99.90
2023-03-30T12:39:49.503Z,99.90
2023-03-30T12:42:34.714Z,99.90
2023-03-30T12:45:29.439Z,99.90
2023-03-30T12:48:24.987Z,99.90
2023-03-30T12:51:14.756Z,99.90
2023-03-30T12:54:03.982Z,99.90
2023-03-30T12:56:38.754Z,99.90
2023-03-30T12:59:28.629Z,99.90
2023-03-30T13:03:03.018Z,99.90
2023-03-30T13:05:39.792Z,99.90
2023-03-30T13:08:35.594Z,99.90
2023-03-30T13:11:21.998Z,99.90
2023-03-30T13:14:02.260Z,99.90
2023-03-30T13:16:52.474Z,99.90
2023-03-30T13:19:33.836Z,99.90
2023-03-30T13:22:13.740Z,99.90
2023-03-30T13:25:19.902Z,99.90
2023-03-30T13:27:52.936Z,99.90
2023-03-30T13:30:31.649Z,99.90
2023-03-30T13:33:15.693Z,99.90
2023-03-30T13:35:55.072Z,99.90
2023-03-30T13:38:46.932Z,99.90
2023-03-30T13:41:50.821Z,99.80
2023-03-30T13:44:55.437Z,99.20
2023-03-30T13:48:01.431Z,99.30
2023-03-30T13:50:34.762Z,99.30
2023-03-30T13:53:10.872Z,99.30
2023-03-30T13:55:46.794Z,99.30
2023-03-30T13:58:23.576Z,99.40
2023-03-30T14:00:56.438Z,99.70
2023-03-30T14:03:46.192Z,99.10
2023-03-30T14:06:26.447Z,99.60
2023-03-30T14:09:06.591Z,99.40
2023-03-30T14:11:45.839Z,98.80
2023-03-30T14:14:41.785Z,98.30
2023-03-30T14:17:22.070Z,98.40
2023-03-30T14:20:17.570Z,98.70
2023-03-30T14:22:50.387Z,97.90
2023-03-30T14:25:31.531Z,97.90
2023-03-30T14:28:12.209Z,97.90
2023-03-30T14:30:59.140Z,97.10
2023-03-30T14:33:30.840Z,97.50
2023-03-30T14:36:03.644Z,97.90
2023-03-30T14:38:40.038Z,98.00
2023-03-30T14:41:24.841Z,97.70
2023-03-30T14:44:02.965Z,97.20
2023-03-30T14:46:46.825Z,97.40
2023-03-30T14:49:24.009Z,97.40
2023-03-30T14:52:08.888Z,96.90
2023-03-30T14:54:43.173Z,97.10
2023-03-30T14:57:21.712Z,97.10
2023-03-30T15:00:01.262Z,97.20
2023-03-30T15:02:33.839Z,97.30
2023-03-30T15:05:08.433Z,96.70
2023-03-30T15:07:40.140Z,97.00
2023-03-30T15:10:35.630Z,98.30
2023-03-30T15:13:07.629Z,97.70
2023-03-30T15:15:38.913Z,96.60
2023-03-30T15:18:20.996Z,96.30
2023-03-30T15:20:52.498Z,96.30
2023-03-30T15:23:27.139Z,96.20
2023-03-30T15:26:02.075Z,96.30
2023-03-30T15:28:49.588Z,96.30
2023-03-30T15:31:21.022Z,96.40
2023-03-30T15:33:55.862Z,97.00
2023-03-30T15:36:41.066Z,97.30
2023-03-30T15:39:25.674Z,97.60
2023-03-30T15:41:56.493Z,99.90
2023-03-30T15:44:28.807Z,99.90
2023-03-30T15:47:01.574Z,99.90
2023-03-30T15:49:47.472Z,99.90
2023-03-30T15:52:24.114Z,99.90
2023-03-30T15:54:55.877Z,99.90
2023-03-30T15:57:30.872Z,99.90
2023-03-30T16:00:09.455Z,99.90
2023-03-30T16:02:47.532Z,99.90
2023-03-30T16:05:24.450Z,99.90
2023-03-30T16:07:55.782Z,99.90
2023-03-30T16:10:30.552Z,99.90
2023-03-30T16:13:02.037Z,99.90
2023-03-30T16:15:33.880Z,99.90
2023-03-30T16:18:04.881Z,99.90
2023-03-30T16:20:35.917Z,99.70
2023-03-30T16:23:08.439Z,99.40
2023-03-30T16:28:17.706Z,97.90
2023-03-30T16:30:53.042Z,97.20
2023-03-30T16:33:24.546Z,96.70
2023-03-30T16:35:55.563Z,96.80
2023-03-30T16:38:26.532Z,96.10
2023-03-30T16:41:00.319Z,96.20
2023-03-30T16:43:31.793Z,96.00
2023-03-30T16:46:02.770Z,95.80
2023-03-30T16:48:33.653Z,96.10
2023-03-30T16:51:05.022Z,96.40
2023-03-30T16:53:36.117Z,96.40
2023-03-30T16:56:16.227Z,96.00
2023-03-30T16:58:47.642Z,95.90
2023-03-30T17:01:18.962Z,95.80
2023-03-30T17:03:50.093Z,95.90
2023-03-30T17:06:22.565Z,96.00
2023-03-30T17:08:55.448Z,95.90
2023-03-30T17:11:26.451Z,95.90
2023-03-30T17:13:57.313Z,95.90
2023-03-30T17:16:30.860Z,96.30
2023-03-30T17:19:02.212Z,96.80
2023-03-30T17:21:33.184Z,97.30
2023-03-30T17:24:04.327Z,97.30
2023-03-30T17:26:35.190Z,97.60
2023-03-30T17:29:06.107Z,98.00
2023-03-30T17:31:38.407Z,98.20
2023-03-30T17:34:09.432Z,98.40
2023-03-30T17:36:40.331Z,98.20
2023-03-30T17:39:14.713Z,98.60
2023-03-30T17:41:45.748Z,98.90
2023-03-30T17:44:16.595Z,98.90
2023-03-30T17:46:47.583Z,99.10
2023-03-30T17:49:18.598Z,99.20
2023-03-30T17:51:49.801Z,99.20
2023-03-30T17:54:20.799Z,99.50
2023-03-30T17:56:51.738Z,99.50
2023-03-30T17:59:22.623Z,99.50
2023-03-30T18:01:53.597Z,99.70
2023-03-30T18:04:24.531Z,99.80
2023-03-30T18:06:55.532Z,99.90
2023-03-30T18:09:26.371Z,99.90
2023-03-30T18:11:57.276Z,99.90
2023-03-30T18:14:28.090Z,99.90
2023-03-30T18:17:06.474Z,99.90
2023-03-30T18:19:39.038Z,99.90
2023-03-30T18:22:10.012Z,99.90
2023-03-30T18:24:42.492Z,99.90
2023-03-30T18:27:13.384Z,99.90
2023-03-30T18:29:44.308Z,99.90
2023-03-30T18:32:15.283Z,99.90
2023-03-30T18:34:46.136Z,99.90
2023-03-30T18:37:17.427Z,99.90
2023-03-30T18:39:48.296Z,99.90
2023-03-30T18:42:19.191Z,99.90
2023-03-30T18:44:50.069Z,99.90
2023-03-30T18:47:21.170Z,99.90
2023-03-30T18:49:52.034Z,99.90
2023-03-30T18:52:22.893Z,99.90
2023-03-30T18:54:53.731Z,99.90
2023-03-30T18:57:24.791Z,99.90
2023-03-30T18:59:56.394Z,99.90
2023-03-30T19:02:27.347Z,99.90
2023-03-30T19:04:59.265Z,99.90
2023-03-30T19:07:30.638Z,99.90
2023-03-30T19:10:01.554Z,99.90
2023-03-30T19:12:32.870Z,99.90
2023-03-30T19:15:05.852Z,99.90
2023-03-30T19:17:36.761Z,99.90
2023-03-30T19:20:08.369Z,99.90
2023-03-30T19:22:39.332Z,99.90
2023-03-30T19:25:12.571Z,99.90
2023-03-30T19:27:55.602Z,99.90
2023-03-30T19:30:38.342Z,99.90
2023-03-30T19:33:16.219Z,99.90
2023-03-30T19:35:47.494Z,99.90
2023-03-30T19:38:18.470Z,99.90
2023-03-30T19:40:49.342Z,99.90
2023-03-30T19:43:20.360Z,99.90
2023-03-30T19:45:51.386Z,99.90
2023-03-30T19:48:22.474Z,99.90
2023-03-30T19:50:53.404Z,99.90
2023-03-30T19:53:24.333Z,99.90
2023-03-30T19:55:55.275Z,99.90
2023-03-30T19:58:26.415Z,99.90
2023-03-30T20:00:57.448Z,99.90
2023-03-30T20:03:30.225Z,99.90
2023-03-30T20:06:02.104Z,99.90
2023-03-30T20:08:33.271Z,99.90
2023-03-30T20:11:09.645Z,99.90
2023-03-30T20:13:46.006Z,99.90
2023-03-30T20:16:25.907Z,99.90
2023-03-30T20:18:57.807Z,99.90
2023-03-30T20:21:28.744Z,99.90
2023-03-30T20:24:00.398Z,99.90
2023-03-30T20:26:31.577Z,99.90
2023-03-30T20:29:02.920Z,99.90
2023-03-30T20:31:33.862Z,99.90
2023-03-30T20:34:04.776Z,99.90
2023-03-30T20:36:36.395Z,99.90
2023-03-30T20:39:07.769Z,99.90
2023-03-30T20:41:38.668Z,99.90
2023-03-30T20:44:13.314Z,99.90
2023-03-30T20:46:44.161Z,99.90
2023-03-30T20:49:15.789Z,99.90
2023-03-30T20:51:50.838Z,99.90
2023-03-30T20:54:21.938Z,99.90
2023-03-30T20:56:52.870Z,99.90
2023-03-30T20:59:23.788Z,99.90
2023-03-30T21:01:59.020Z,99.90
2023-03-30T21:04:29.898Z,99.90
2023-03-30T21:07:01.144Z,99.90
2023-03-30T21:09:34.039Z,99.90
2023-03-30T21:12:05.597Z,99.90
2023-03-30T21:14:36.534Z,99.90
2023-03-30T21:17:07.525Z,99.90
2023-03-30T21:19:38.762Z,99.90
2023-03-30T21:22:09.662Z,99.90
2023-03-30T21:24:40.852Z,99.90
2023-03-30T21:27:13.864Z,99.90
2023-03-30T21:29:44.754Z,99.90
2023-03-30T21:32:16.029Z,99.90
2023-03-30T21:34:46.932Z,99.90
2023-03-30T21:37:17.874Z,99.90
2023-03-30T21:39:49.295Z,99.90
2023-03-30T21:42:20.421Z,99.90
2023-03-30T21:44:51.414Z,99.90
2023-03-30T21:47:22.325Z,99.90
2023-03-30T21:49:53.306Z,99.90
2023-03-30T21:52:24.207Z,99.90
2023-03-30T21:54:55.283Z,99.90
2023-03-30T21:57:26.725Z,99.90
2023-03-30T21:59:57.681Z,99.90
2023-03-30T22:02:28.593Z,99.90
2023-03-30T22:04:59.951Z,99.90
2023-03-30T22:07:30.983Z,99.90
2023-03-30T22:10:02.032Z,99.90
2023-03-30T22:12:32.915Z,99.90
2023-03-30T22:15:03.970Z,99.90
2023-03-30T22:17:41.810Z,99.90
2023-03-30T22:20:13.347Z,99.90
2023-03-30T22:22:44.886Z,99.90
2023-03-30T22:25:17.673Z,99.90
2023-03-30T22:27:49.110Z,99.90
2023-03-30T22:30:20.768Z,99.90
2023-03-30T22:32:51.695Z,99.90
2023-03-30T22:35:23.199Z,99.90
2023-03-30T22:37:54.048Z,99.90
2023-03-30T22:40:25.041Z,99.90
2023-03-30T22:42:56.014Z,99.90
2023-03-30T22:45:27.295Z,99.90
2023-03-30T22:47:59.257Z,99.90
2023-03-30T22:50:30.667Z,99.90
2023-03-30T22:53:01.681Z,99.90
2023-03-30T22:55:32.561Z,99.90
2023-03-30T22:58:03.679Z,99.90
2023-03-30T23:00:34.548Z,99.90
2023-03-30T23:03:05.453Z,99.90
2023-03-30T23:05:36.483Z,99.90
2023-03-30T23:08:07.461Z,99.90
2023-03-30T23:10:39.382Z,99.90
2023-03-30T23:13:10.277Z,99.90
2023-03-30T23:15:42.751Z,99.90
2023-03-30T23:18:13.602Z,99.90
2023-03-30T23:20:46.760Z,99.90
2023-03-30T23:23:17.780Z,99.90
2023-03-30T23:25:50.670Z,99.90
2023-03-30T23:28:21.545Z,99.90
2023-03-30T23:30:52.523Z,99.90
2023-03-30T23:33:24.779Z,99.90
2023-03-30T23:35:55.728Z,99.90
2023-03-30T23:38:26.727Z,99.90
2023-03-30T23:40:58.876Z,99.90
2023-03-30T23:43:29.832Z,99.90
2023-03-30T23:46:00.804Z,99.90
2023-03-30T23:48:32.349Z,99.90
2023-03-30T23:51:03.688Z,99.90
2023-03-30T23:53:34.981Z,99.90
2023-03-30T23:56:12.886Z,99.90
2023-03-30T23:58:44.092Z,99.90
